Main page
METAR-TAF:

METAR-TAF

Airports :

Bermuda, Bermuda

L.F. Wade International Airport

latitude: 32-22N, longitude: 064-41W, elevation: 6 m

Current weather observation

The report was made 47 minutes ago, at 19:55 UTC
Wind 15 kt from the West
Temperature 28°C
Humidity 74%
Pressure 1019 hPa
Visibility 10 km or more
Scattered clouds at a height of 2000 ft
Scattered clouds at a height of 14000 ft
Broken clouds at a height of 20000 ft

METAR: TXKF 231955Z 28015KT 9999 SCT020 SCT140 BKN200 28/23 Q1019

Time: 17:42 (20:42 UTC)

Forecast

The report was made 3 hours and 11 minutes ago, at 17:31 UTC
Forecast valid from 23 at 18 UTC to 24 at 18 UTC
Wind 10 kt from the West
Visibility 10 km or more
Few clouds at a height of 2000 ft
Scattered clouds at a height of 12000 ft
Broken clouds at a height of 30000 ft
Probability 30% :
Temporary
from 24 at 06 UTC to 24 at 12 UTC
Broken clouds at a height of 1400 ft
showers in vicinity

TAF: TXKF 231731Z 2318/2418 26010KT 9999 FEW020 SCT120 BKN300 PROB30 TEMPO 2406/2412 VCSH BKN014

Weather observations and forecasts of more than 4000 airports (METAR and TAF reports).

The available stations are represented by yellow and red dots on the map.

Hover mouse over dot to see the name of the station.

Then click to see weather observations and forecasts.

To change the map : click on the green buttons with a black cross to zoom in, on the green button with a dash to zoom out, or on the green arrows for adjacent maps.


METAR-TAF: